Time;durP1;ratioP1;P1;durP2;ratioP2;P2;SDS_P1;SDS_P2;PMS_P1;PMS_P2;Temp;Humidity;BMP_temperature;BMP_pressure;BME280_temperature;BME280_humidity;BME280_pressure;Samples;Min_cycle;Max_cycle;Signal;HPM_P1;HPM_P2
2023/12/19 00:00:00;;;;;;;0.60;0.60;;;;;;;1.71;100.00;98050.63;29395;227;63004;-54
2023/12/19 00:00:31;;;;;;;0.60;0.60;;;;;;;1.70;100.00;98046.28;29395;215;63018;-53
2023/12/19 00:01:03;;;;;;;0.60;0.60;;;;;;;1.70;100.00;98037.44;29395;202;63005;-54
2023/12/19 00:01:34;;;;;;;0.60;0.60;;;;;;;1.70;100.00;98037.44;29395;207;63009;-54
2023/12/19 00:02:08;;;;;;;0.68;0.68;;;;;;;1.69;100.00;98036.63;29395;220;63005;-54
2023/12/19 00:02:39;;;;;;;0.70;0.70;;;;;;;1.70;100.00;98032.09;29395;218;63009;-68
2023/12/19 00:03:11;;;;;;;0.60;0.60;;;;;;;1.71;100.00;98023.03;29393;346;64009;-54
2023/12/19 00:03:42;;;;;;;0.60;0.60;;;;;;;1.71;100.00;98023.84;29395;315;63009;-54
2023/12/19 00:04:15;;;;;;;0.60;0.60;;;;;;;1.72;100.00;98030.03;29395;225;63005;-54
2023/12/19 00:04:47;;;;;;;0.60;0.60;;;;;;;1.73;100.00;98021.78;29395;199;63009;-54
2023/12/19 00:05:18;;;;;;;0.60;0.60;;;;;;;1.75;100.00;98024.25;29395;271;63004;-54
2023/12/19 00:05:50;;;;;;;0.60;0.60;;;;;;;1.75;100.00;98027.72;29395;356;63009;-54
2023/12/19 00:06:21;;;;;;;0.60;0.60;;;;;;;1.75;100.00;98025.06;29395;202;63004;-67
2023/12/19 00:06:52;;;;;;;0.60;0.60;;;;;;;1.74;100.00;98031.44;29395;212;63009;-54
2023/12/19 00:07:23;;;;;;;0.60;0.60;;;;;;;1.73;100.00;98032.50;29395;222;63017;-68
2023/12/19 00:07:55;;;;;;;0.60;0.60;;;;;;;1.71;100.00;98029.22;29395;197;63008;-68
2023/12/19 00:08:26;;;;;;;0.60;0.60;;;;;;;1.70;100.00;98038.25;29393;269;64009;-69
2023/12/19 00:08:57;;;;;;;0.60;0.60;;;;;;;1.71;100.00;98023.84;29395;231;63009;-53
2023/12/19 00:09:29;;;;;;;0.60;0.60;;;;;;;1.71;100.00;98034.56;29395;215;63005;-68
2023/12/19 00:10:00;;;;;;;0.60;0.60;;;;;;;1.71;100.00;98034.56;29395;230;63009;-54
2023/12/19 00:10:31;;;;;;;0.60;0.60;;;;;;;1.71;100.00;98028.38;29395;226;63005;-54
2023/12/19 00:11:04;;;;;;;0.60;0.60;;;;;;;1.71;100.00;98039.09;29395;281;63009;-67
2023/12/19 00:11:36;;;;;;;0.70;0.70;;;;;;;1.70;100.00;98040.94;29395;227;63005;-67
2023/12/19 00:12:08;;;;;;;0.60;0.60;;;;;;;1.69;100.00;98031.28;29395;214;63009;-68
2023/12/19 00:12:39;;;;;;;0.62;0.62;;;;;;;1.70;100.00;98032.09;29395;225;63004;-53
2023/12/19 00:13:11;;;;;;;0.60;0.60;;;;;;;1.69;100.00;98031.28;29394;227;64009;-54
2023/12/19 00:13:42;;;;;;;0.60;0.60;;;;;;;1.70;100.00;98027.56;29393;230;64009;-54
2023/12/19 00:14:14;;;;;;;0.60;0.60;;;;;;;1.69;100.00;98028.59;29395;247;63009;-68
2023/12/19 00:14:45;;;;;;;0.70;0.70;;;;;;;1.69;100.00;98031.28;29395;274;63004;-68
2023/12/19 00:15:17;;;;;;;0.70;0.70;;;;;;;1.67;100.00;98034.16;29395;220;63008;-54
2023/12/19 00:15:49;;;;;;;0.70;0.70;;;;;;;1.66;100.00;98032.50;29395;261;63010;-54
2023/12/19 00:16:20;;;;;;;0.60;0.60;;;;;;;1.68;100.00;98034.97;29394;228;63009;-54
2023/12/19 00:16:51;;;;;;;0.70;0.70;;;;;;;1.65;100.00;98041.56;29395;308;63005;-54
2023/12/19 00:17:22;;;;;;;0.60;0.60;;;;;;;1.64;100.00;98031.88;29395;203;63009;-69
2023/12/19 00:17:54;;;;;;;0.60;0.60;;;;;;;1.64;100.00;98034.56;29395;366;63005;-67
2023/12/19 00:18:26;;;;;;;0.70;0.70;;;;;;;1.64;100.00;98037.25;29395;225;63009;-54
2023/12/19 00:19:01;;;;;;;0.60;0.60;;;;;;;1.64;100.00;98028.41;29394;246;64009;-54
2023/12/19 00:19:32;;;;;;;0.60;0.60;;;;;;;1.62;100.00;98033.94;29395;197;63009;-68
2023/12/19 00:20:04;;;;;;;0.70;0.70;;;;;;;1.65;100.00;98030.03;29395;236;63014;-53
2023/12/19 00:20:36;;;;;;;0.65;0.65;;;;;;;1.65;100.00;98035.37;29395;221;63009;-67
2023/12/19 00:21:07;;;;;;;0.60;0.60;;;;;;;1.62;100.00;98025.94;29395;211;63004;-54
2023/12/19 00:21:38;;;;;;;1.10;1.10;;;;;;;1.64;100.00;98023.03;29395;296;63009;-54
2023/12/19 00:22:09;;;;;;;0.60;0.60;;;;;;;1.65;100.00;98024.69;29395;223;63004;-55
2023/12/19 00:22:41;;;;;;;0.70;0.70;;;;;;;1.64;99.43;98023.88;29395;196;63008;-54
2023/12/19 00:23:12;;;;;;;0.60;0.60;;;;;;;1.65;99.59;98019.34;29395;227;63005;-55
2023/12/19 00:23:43;;;;;;;0.60;0.60;;;;;;;1.66;99.31;98020.97;29395;217;63009;-54
2023/12/19 00:24:14;;;;;;;0.60;0.60;;;;;;;1.69;99.07;98023.25;29393;215;64009;-54
2023/12/19 00:24:46;;;;;;;0.60;0.60;;;;;;;1.70;97.83;98027.56;29395;216;63009;-69
2023/12/19 00:25:17;;;;;;;0.60;0.60;;;;;;;1.71;96.41;98023.84;29395;217;63005;-55
2023/12/19 00:25:49;;;;;;;0.62;0.62;;;;;;;1.75;94.81;98019.72;29395;197;63009;-54
2023/12/19 00:26:21;;;;;;;0.60;0.60;;;;;;;1.77;94.27;98014.97;29395;231;63005;-54
2023/12/19 00:26:53;;;;;;;0.60;0.60;;;;;;;1.78;94.07;98019.28;29395;239;63009;-54
2023/12/19 00:27:24;;;;;;;1.15;1.15;;;;;;;1.82;93.70;98014.34;29395;207;63004;-55
2023/12/19 00:27:55;;;;;;;0.60;0.60;;;;;;;1.86;94.03;98013.72;29395;209;63009;-66
2023/12/19 00:28:27;;;;;;;0.70;0.70;;;;;;;1.89;93.65;98010.63;29395;344;63004;-67
2023/12/19 00:28:58;;;;;;;0.60;0.60;;;;;;;1.91;93.53;98013.91;29395;259;63009;-54
2023/12/19 00:29:30;;;;;;;0.65;0.65;;;;;;;1.95;93.62;98009.78;29393;202;64009;-54
2023/12/19 00:30:01;;;;;;;0.60;0.60;;;;;;;1.97;92.82;98006.91;29395;288;63008;-54
2023/12/19 00:30:33;;;;;;;0.60;0.60;;;;;;;1.98;91.90;97992.50;29395;249;63004;-54
2023/12/19 00:31:04;;;;;;;0.60;0.60;;;;;;;2.00;91.34;97993.09;29395;200;63009;-54
2023/12/19 00:31:35;;;;;;;0.60;0.60;;;;;;;2.00;90.77;97985.06;29395;239;63005;-54
2023/12/19 00:32:07;;;;;;;0.60;0.60;;;;;;;2.03;91.27;97983.81;29394;213;64014;-54
2023/12/19 00:32:38;;;;;;;0.60;0.60;;;;;;;2.04;90.45;97985.47;29395;213;63005;-54
2023/12/19 00:33:09;;;;;;;0.70;0.70;;;;;;;2.07;91.10;97982.38;29395;245;63009;-56
2023/12/19 00:33:40;;;;;;;1.33;1.33;;;;;;;2.12;90.06;97982.53;29395;224;63005;-67
2023/12/19 00:34:16;;;;;;;0.60;0.60;;;;;;;2.14;88.85;97980.47;29395;294;63018;-67
2023/12/19 00:34:47;;;;;;;0.60;0.60;;;;;;;2.19;88.16;97967.25;29395;204;63005;-54
2023/12/19 00:35:19;;;;;;;0.60;0.60;;;;;;;2.23;87.08;97968.50;29395;204;63009;-54
2023/12/19 00:35:50;;;;;;;0.60;0.60;;;;;;;2.26;85.37;97968.06;29395;259;63004;-65
2023/12/19 00:36:25;;;;;;;0.60;0.60;;;;;;;2.30;84.46;97967.44;29395;222;63009;-54
2023/12/19 00:36:56;;;;;;;0.60;0.60;;;;;;;2.33;83.75;97960.81;29394;207;64009;-67
2023/12/19 00:37:27;;;;;;;0.60;0.60;;;;;;;2.36;82.52;97957.72;29395;208;63008;-68
2023/12/19 00:38:02;;;;;;;0.60;0.60;;;;;;;2.39;82.35;97951.94;29395;280;63004;-54
2023/12/19 00:38:34;;;;;;;0.60;0.60;;;;;;;2.45;81.28;97948.38;29395;221;63009;-54
2023/12/19 00:39:05;;;;;;;0.60;0.60;;;;;;;2.46;81.58;97952.69;29395;213;63018;-67
2023/12/19 00:39:38;;;;;;;0.60;0.60;;;;;;;2.48;81.98;97955.16;29395;336;63009;-54
2023/12/19 00:40:12;;;;;;;0.60;0.60;;;;;;;2.49;81.93;97954.12;29395;273;63005;-54
2023/12/19 00:40:44;;;;;;;0.60;0.60;;;;;;;2.51;80.32;97950.19;29395;294;63009;-66
2023/12/19 00:41:16;;;;;;;0.60;0.60;;;;;;;2.54;80.93;97943.59;29395;246;63005;-53
2023/12/19 00:41:48;;;;;;;0.60;0.60;;;;;;;2.56;80.49;97936.16;29395;213;63026;-53
2023/12/19 00:42:24;;;;;;;0.60;0.60;;;;;;;2.58;81.14;97939.44;29394;218;64009;-53
2023/12/19 00:42:57;;;;;;;0.62;0.62;;;;;;;2.60;81.19;97937.38;29395;214;63009;-51
2023/12/19 00:43:29;;;;;;;0.60;0.60;;;;;;;2.61;81.29;97945.19;29395;213;63017;-55
2023/12/19 00:44:03;;;;;;;0.60;0.60;;;;;;;2.63;82.13;97940.44;29395;208;63009;-64
2023/12/19 00:44:36;;;;;;;0.60;0.60;;;;;;;2.64;82.52;97942.09;29395;385;63004;-66
2023/12/19 00:45:11;;;;;;;0.60;0.60;;;;;;;2.64;82.15;97936.72;29395;244;63009;-56
2023/12/19 00:45:42;;;;;;;0.60;0.60;;;;;;;2.63;82.07;97935.06;29395;247;63005;-54
2023/12/19 00:46:13;;;;;;;0.60;0.60;;;;;;;2.61;82.17;97931.78;29395;208;63009;-55
2023/12/19 00:46:45;;;;;;;0.60;0.60;;;;;;;2.61;82.08;97937.16;29395;344;63005;-55
2023/12/19 00:47:16;;;;;;;0.60;0.60;;;;;;;2.61;82.21;97931.78;29395;263;63009;-54
2023/12/19 00:47:47;;;;;;;0.60;0.60;;;;;;;2.63;82.39;97932.41;29394;333;64009;-53
2023/12/19 00:48:19;;;;;;;0.60;0.60;;;;;;;2.62;82.42;97936.13;29395;209;63009;-54
2023/12/19 00:48:50;;;;;;;0.68;0.68;;;;;;;2.63;82.72;97932.41;29395;246;63005;-55
2023/12/19 00:49:22;;;;;;;0.60;0.60;;;;;;;2.62;81.78;97936.13;29395;247;63014;-68
2023/12/19 00:49:53;;;;;;;0.60;0.60;;;;;;;2.62;82.09;97936.13;29395;198;63003;-54
2023/12/19 00:50:25;;;;;;;0.60;0.60;;;;;;;2.60;81.81;97930.16;29395;247;63009;-68
2023/12/19 00:50:56;;;;;;;0.60;0.60;;;;;;;2.57;81.87;97938.62;29395;261;63004;-54
2023/12/19 00:51:27;;;;;;;0.60;0.60;;;;;;;2.57;82.71;97937.78;29395;275;63009;-54
2023/12/19 00:52:00;;;;;;;0.60;0.60;;;;;;;2.54;82.53;97931.00;29395;233;63004;-55
2023/12/19 00:52:32;;;;;;;0.60;0.60;;;;;;;2.54;83.10;97933.69;29395;198;63009;-55
2023/12/19 00:53:03;;;;;;;0.60;0.60;;;;;;;2.54;82.67;97932.88;29394;216;64009;-68
2023/12/19 00:53:34;;;;;;;0.60;0.60;;;;;;;2.53;81.66;97932.03;29395;266;63009;-54
2023/12/19 00:54:06;;;;;;;0.60;0.60;;;;;;;2.55;81.12;97934.50;29395;240;63005;-54
2023/12/19 00:54:37;;;;;;;0.60;0.60;;;;;;;2.58;80.33;97934.91;29395;221;63009;-54
2023/12/19 00:55:09;;;;;;;0.60;0.60;;;;;;;2.58;79.56;97924.19;29395;281;63005;-54
2023/12/19 00:55:40;;;;;;;0.60;0.60;;;;;;;2.57;78.87;97927.91;29395;204;63009;-54
2023/12/19 00:56:12;;;;;;;0.60;0.60;;;;;;;2.57;79.85;97933.25;29395;212;63005;-55
2023/12/19 00:56:43;;;;;;;0.60;0.60;;;;;;;2.59;80.36;97933.88;29395;202;63009;-57
2023/12/19 00:57:14;;;;;;;0.60;0.60;;;;;;;2.61;78.76;97929.13;29395;197;63004;-66
2023/12/19 00:57:45;;;;;;;1.27;1.27;;;;;;;2.62;78.86;97936.13;29395;223;63009;-54
2023/12/19 00:58:17;;;;;;;0.60;0.60;;;;;;;2.65;78.39;97935.69;29394;264;64008;-67
2023/12/19 00:58:48;;;;;;;0.60;0.60;;;;;;;2.64;77.49;97938.59;29395;265;63009;-53
2023/12/19 00:59:20;;;;;;;0.60;0.60;;;;;;;2.68;77.73;97934.44;29395;202;63004;-54
2023/12/19 00:59:52;;;;;;;0.60;0.60;;;;;;;2.68;76.94;97935.25;29395;248;63008;-54
2023/12/19 01:00:23;;;;;;;0.60;0.60;;;;;;;2.73;77.09;97933.78;29395;209;63005;-63
2023/12/19 01:00:54;;;;;;;0.60;0.60;;;;;;;2.74;77.25;97935.44;29395;228;63009;-55
2023/12/19 01:01:28;;;;;;;0.60;0.60;;;;;;;2.73;76.14;97933.78;29395;217;63005;-54
2023/12/19 01:01:59;;;;;;;0.60;0.60;;;;;;;2.73;77.25;97941.81;29395;229;63009;-66
2023/12/19 01:02:32;;;;;;;0.60;0.60;;;;;;;2.73;78.47;97941.81;29395;204;63005;-55
2023/12/19 01:03:04;;;;;;;0.60;0.60;;;;;;;2.73;77.72;97933.78;29395;207;63009;-67
2023/12/19 01:03:37;;;;;;;0.60;0.60;;;;;;;2.73;77.85;97936.47;29394;237;64009;-53
2023/12/19 01:04:09;;;;;;;0.60;0.60;;;;;;;2.71;77.33;97933.19;29395;197;63004;-63
2023/12/19 01:04:41;;;;;;;1.00;1.00;;;;;;;2.71;78.07;97943.91;29395;218;63004;-55
2023/12/19 01:05:16;;;;;;;0.70;0.70;;;;;;;2.69;77.29;97934.22;29395;221;63009;-55
2023/12/19 01:05:47;;;;;;;0.60;0.60;;;;;;;2.71;77.22;97935.84;29395;204;63004;-54
2023/12/19 01:06:18;;;;;;;0.60;0.60;;;;;;;2.68;77.41;97935.25;29395;204;63009;-54
2023/12/19 01:06:50;;;;;;;0.60;0.60;;;;;;;2.68;77.34;97929.91;29395;218;63004;-54
2023/12/19 01:07:21;;;;;;;0.60;0.60;;;;;;;2.68;76.30;97924.53;29395;212;63008;-54
2023/12/19 01:07:54;;;;;;;0.60;0.60;;;;;;;2.65;76.23;97919.59;29395;199;63005;-67
2023/12/19 01:08:25;;;;;;;0.60;0.60;;;;;;;2.63;76.20;97923.53;29395;261;63009;-54
2023/12/19 01:08:56;;;;;;;0.60;0.60;;;;;;;2.60;76.24;97919.44;29394;206;64009;-66
2023/12/19 01:09:27;;;;;;;0.60;0.60;;;;;;;2.61;76.16;97914.91;29395;278;63009;-66
2023/12/19 01:09:59;;;;;;;0.60;0.60;;;;;;;2.68;74.69;97907.63;29395;209;63005;-54
2023/12/19 01:10:30;;;;;;;0.60;0.60;;;;;;;2.69;75.44;97915.47;29393;207;64013;-54
2023/12/19 01:11:02;;;;;;;1.02;1.02;;;;;;;2.68;75.23;97913.00;29395;209;63005;-53
2023/12/19 01:11:33;;;;;;;0.70;0.70;;;;;;;2.68;75.92;97919.19;29395;226;63009;-64
2023/12/19 01:12:05;;;;;;;0.60;0.60;;;;;;;2.73;76.13;97917.72;29395;251;63004;-54
2023/12/19 01:12:37;;;;;;;1.12;1.12;;;;;;;2.71;75.05;97907.19;29395;246;63009;-66
2023/12/19 01:13:08;;;;;;;0.60;0.60;;;;;;;2.72;75.45;97913.37;29395;210;63004;-66
2023/12/19 01:13:43;;;;;;;0.60;0.60;;;;;;;2.73;74.95;97910.50;29395;259;63009;-54
2023/12/19 01:14:15;;;;;;;0.70;0.70;;;;;;;2.74;75.16;97916.66;29395;207;63009;-54
2023/12/19 01:14:46;;;;;;;1.10;1.10;;;;;;;2.73;75.30;97910.50;29395;215;63008;-54
2023/12/19 01:15:18;;;;;;;0.70;0.70;;;;;;;2.75;75.48;97921.00;29395;227;63005;-54
2023/12/19 01:15:50;;;;;;;0.60;0.60;;;;;;;2.75;76.13;97923.66;29393;222;64014;-68
2023/12/19 01:16:21;;;;;;;0.80;0.80;;;;;;;2.74;75.48;97922.03;29395;202;63008;-54
2023/12/19 01:16:53;;;;;;;0.60;0.60;;;;;;;2.65;75.42;97906.22;29395;221;63009;-55
2023/12/19 01:17:24;;;;;;;0.60;0.60;;;;;;;2.76;73.78;97911.91;29395;216;63005;-67
2023/12/19 01:17:56;;;;;;;0.70;0.70;;;;;;;2.77;73.88;97910.88;29395;247;63009;-67
2023/12/19 01:18:27;;;;;;;0.60;0.60;;;;;;;2.78;73.70;97913.31;29395;202;63005;-54
2023/12/19 01:19:01;;;;;;;0.60;0.60;;;;;;;2.78;73.88;97917.84;29395;202;63015;-54
2023/12/19 01:19:33;;;;;;;0.60;0.60;;;;;;;2.75;73.68;97913.78;29395;206;63004;-53
2023/12/19 01:20:06;;;;;;;0.60;0.60;;;;;;;2.75;73.16;97910.28;29395;232;63009;-54
2023/12/19 01:20:39;;;;;;;0.60;0.60;;;;;;;2.76;73.85;97914.59;29395;252;63004;-54
2023/12/19 01:21:10;;;;;;;0.60;0.60;;;;;;;2.76;72.76;97909.22;29393;237;64013;-53
2023/12/19 01:21:42;;;;;;;0.60;0.60;;;;;;;2.78;72.99;97904.44;29395;276;63004;-69
2023/12/19 01:22:13;;;;;;;0.60;0.60;;;;;;;2.78;73.20;97907.94;29395;208;63008;-54
2023/12/19 01:22:44;;;;;;;0.60;0.60;;;;;;;2.78;72.96;97909.81;29395;197;63005;-53
2023/12/19 01:23:16;;;;;;;0.60;0.60;;;;;;;2.79;72.72;97908.75;29395;294;63009;-54
2023/12/19 01:23:47;;;;;;;0.60;0.60;;;;;;;2.79;73.12;97908.75;29395;254;63009;-55
2023/12/19 01:24:19;;;;;;;0.70;0.70;;;;;;;2.81;73.13;97912.06;29395;251;63009;-55
2023/12/19 01:24:50;;;;;;;0.60;0.60;;;;;;;2.81;72.31;97906.69;29395;239;63008;-54
2023/12/19 01:25:21;;;;;;;0.60;0.60;;;;;;;2.82;72.42;97908.34;29395;253;63009;-66
2023/12/19 01:25:52;;;;;;;0.60;0.60;;;;;;;2.81;72.48;97904.84;29395;216;63005;-54
2023/12/19 01:26:23;;;;;;;0.60;0.60;;;;;;;2.81;72.10;97909.38;29395;253;64013;-64
2023/12/19 01:26:55;;;;;;;0.60;0.60;;;;;;;2.82;72.63;97908.34;29395;261;63004;-54
2023/12/19 01:27:26;;;;;;;0.60;0.60;;;;;;;2.81;72.91;97912.87;29395;219;63009;-66
2023/12/19 01:27:57;;;;;;;0.60;0.60;;;;;;;2.83;73.01;97909.97;29395;214;63013;-54
2023/12/19 01:28:29;;;;;;;0.62;0.62;;;;;;;2.84;72.47;97912.44;29395;214;63009;-53
2023/12/19 01:29:02;;;;;;;0.60;0.60;;;;;;;2.85;72.17;97908.72;29395;259;63004;-65
2023/12/19 01:29:33;;;;;;;0.60;0.60;;;;;;;2.86;70.85;97898.81;29395;240;63008;-53
2023/12/19 01:30:08;;;;;;;0.60;0.60;;;;;;;2.89;71.18;97904.56;29395;268;63008;-65
2023/12/19 01:30:40;;;;;;;0.70;0.70;;;;;;;2.91;70.56;97907.84;29395;359;63009;-53
2023/12/19 01:31:12;;;;;;;0.60;0.60;;;;;;;2.92;70.50;97908.66;29395;257;63005;-53
2023/12/19 01:31:43;;;;;;;0.60;0.60;;;;;;;2.96;70.67;97904.50;29394;309;64014;-66
2023/12/19 01:32:15;;;;;;;0.60;0.60;;;;;;;2.98;70.66;97905.13;29395;225;63005;-66
2023/12/19 01:32:47;;;;;;;0.60;0.60;;;;;;;2.97;69.69;97906.97;29395;265;63009;-67
2023/12/19 01:33:19;;;;;;;0.60;0.60;;;;;;;2.99;70.74;97910.25;29395;224;63005;-54
2023/12/19 01:33:51;;;;;;;0.60;0.60;;;;;;;2.98;69.54;97905.13;29395;203;63009;-54
2023/12/19 01:34:22;;;;;;;0.60;0.60;;;;;;;2.97;69.49;97903.47;29395;247;63004;-54
2023/12/19 01:34:55;;;;;;;0.60;0.60;;;;;;;2.97;70.19;97906.97;29395;218;63009;-68
2023/12/19 01:35:26;;;;;;;0.70;0.70;;;;;;;2.98;70.03;97908.62;29395;219;63009;-54
2023/12/19 01:35:57;;;;;;;0.70;0.70;;;;;;;3.00;70.05;97911.09;29395;219;63009;-66
2023/12/19 01:36:29;;;;;;;0.60;0.60;;;;;;;3.02;68.92;97900.97;29395;217;63004;-66
2023/12/19 01:37:00;;;;;;;0.60;0.60;;;;;;;3.02;68.01;97900.97;29394;244;64013;-67
2023/12/19 01:37:31;;;;;;;0.70;0.70;;;;;;;3.03;69.31;97899.91;29395;218;63004;-65
2023/12/19 01:38:06;;;;;;;0.60;0.60;;;;;;;3.04;68.36;97901.56;29395;291;63009;-54
2023/12/19 01:38:37;;;;;;;0.60;0.60;;;;;;;3.05;69.33;97908.56;29395;215;63005;-67
2023/12/19 01:39:09;;;;;;;0.60;0.60;;;;;;;3.06;69.42;97906.72;29395;216;63009;-54
2023/12/19 01:39:41;;;;;;;0.60;0.60;;;;;;;3.05;69.88;97908.56;29395;283;63008;-66
2023/12/19 01:40:13;;;;;;;0.60;0.60;;;;;;;3.07;70.04;97911.03;29395;223;63009;-54
2023/12/19 01:40:48;;;;;;;0.60;0.60;;;;;;;3.09;70.37;97915.13;29395;258;63005;-54
2023/12/19 01:41:21;;;;;;;0.60;0.60;;;;;;;3.10;69.52;97922.13;29395;276;63022;-67
2023/12/19 01:41:56;;;;;;;0.60;0.60;;;;;;;3.12;70.03;97924.59;29395;214;63017;-54
2023/12/19 01:42:28;;;;;;;0.60;0.60;;;;;;;3.14;69.75;97917.94;29393;222;64013;-54
2023/12/19 01:42:59;;;;;;;0.60;0.60;;;;;;;3.14;69.12;97915.25;29395;222;63004;-67
2023/12/19 01:43:31;;;;;;;0.60;0.60;;;;;;;3.12;68.84;97919.25;29395;204;63009;-66
2023/12/19 01:44:04;;;;;;;0.60;0.60;;;;;;;3.13;69.93;97918.16;29395;221;63004;-54
2023/12/19 01:44:35;;;;;;;0.60;0.60;;;;;;;3.12;69.35;97924.59;29395;218;63017;-66
2023/12/19 01:45:11;;;;;;;0.60;0.60;;;;;;;3.12;69.87;97924.59;29395;218;63008;-54
2023/12/19 01:45:42;;;;;;;0.60;0.60;;;;;;;3.10;70.08;97932.88;29395;217;63009;-54
2023/12/19 01:46:16;;;;;;;0.60;0.60;;;;;;;3.10;70.62;97924.81;29395;296;63007;-67
2023/12/19 01:46:48;;;;;;;0.70;0.70;;;;;;;3.10;70.30;97927.50;29395;212;63009;-54
2023/12/19 01:47:20;;;;;;;0.60;0.60;;;;;;;3.09;70.84;97941.94;29395;204;63005;-67
2023/12/19 01:47:52;;;;;;;0.60;0.60;;;;;;;3.08;70.39;97940.31;29394;197;64013;-54
2023/12/19 01:48:26;;;;;;;0.60;0.60;;;;;;;3.04;71.26;97944.47;29395;280;63005;-54
2023/12/19 01:49:00;;;;;;;0.60;0.60;;;;;;;3.02;71.59;97941.19;29395;220;63009;-67
2023/12/19 01:49:32;;;;;;;0.60;0.60;;;;;;;3.00;72.07;97948.63;29395;197;63004;-66
2023/12/19 01:50:06;;;;;;;0.60;0.60;;;;;;;2.98;72.37;97951.53;29395;208;63009;-54
2023/12/19 01:50:37;;;;;;;0.60;0.60;;;;;;;2.97;72.99;97957.09;29395;216;63004;-67
2023/12/19 01:51:11;;;;;;;0.60;0.60;;;;;;;2.94;73.12;97958.34;29395;265;63016;-66
2023/12/19 01:51:43;;;;;;;0.60;0.60;;;;;;;2.94;73.71;97968.25;29395;208;63004;-54
2023/12/19 01:52:14;;;;;;;0.60;0.60;;;;;;;2.94;73.76;97976.28;29395;232;63009;-67
2023/12/19 01:52:57;;;;;;;0.60;0.60;;;;;;;2.91;73.80;97974.03;29395;234;63005;-54
2023/12/19 01:53:29;;;;;;;0.60;0.60;;;;;;;2.90;74.13;97972.41;29394;208;64014;-68
2023/12/19 01:54:03;;;;;;;0.68;0.68;;;;;;;2.87;74.24;97976.34;29395;198;63005;-66
2023/12/19 01:54:37;;;;;;;0.60;0.60;;;;;;;2.82;74.10;97968.13;29395;210;63009;-66
2023/12/19 01:55:10;;;;;;;0.60;0.60;;;;;;;2.79;74.59;97978.44;29395;233;63014;-54
2023/12/19 01:55:42;;;;;;;0.60;0.60;;;;;;;2.73;74.84;97973.97;29395;202;63009;-54
2023/12/19 01:56:17;;;;;;;0.70;0.70;;;;;;;2.67;75.42;97975.66;29395;204;63012;-67
2023/12/19 01:56:52;;;;;;;0.60;0.60;;;;;;;2.60;76.89;97975.69;29395;266;63009;-69
2023/12/19 01:57:23;;;;;;;0.60;0.60;;;;;;;2.53;78.22;97974.91;29395;197;63000;-67
2023/12/19 01:57:55;;;;;;;0.60;0.60;;;;;;;2.44;78.81;97968.16;29395;236;63009;-68
2023/12/19 01:58:29;;;;;;;1.33;1.33;;;;;;;2.41;79.31;97970.47;29395;276;63004;-66
2023/12/19 01:59:01;;;;;;;0.60;0.60;;;;;;;2.38;79.39;97965.53;29394;196;64013;-54
2023/12/19 01:59:35;;;;;;;0.60;0.60;;;;;;;2.33;79.91;97963.50;29395;202;63005;-54
2023/12/19 02:00:08;;;;;;;0.60;0.60;;;;;;;2.26;80.23;97965.37;29395;226;63009;-54
2023/12/19 02:00:41;;;;;;;0.60;0.60;;;;;;;2.23;80.21;97957.78;29395;328;63005;-67
2023/12/19 02:01:13;;;;;;;0.60;0.60;;;;;;;2.20;80.54;97958.19;29395;233;63009;-67
2023/12/19 02:01:45;;;;;;;0.60;0.60;;;;;;;2.16;80.53;97951.63;29395;371;63005;-54
2023/12/19 02:02:20;;;;;;;0.60;0.60;;;;;;;2.12;80.82;97956.59;29395;213;63009;-54
2023/12/19 02:02:52;;;;;;;0.60;0.60;;;;;;;2.10;80.93;97955.16;29395;286;63009;-54
2023/12/19 02:03:24;;;;;;;0.60;0.60;;;;;;;2.07;81.12;97952.94;29395;279;63009;-68
2023/12/19 02:03:55;;;;;;;0.65;0.65;;;;;;;2.06;81.26;97953.97;29394;222;64004;-67
2023/12/19 02:04:27;;;;;;;0.60;0.60;;;;;;;2.04;81.25;97956.03;29394;417;64013;-53
2023/12/19 02:04:59;;;;;;;0.60;0.60;;;;;;;2.00;81.41;97953.78;29395;293;63004;-54
2023/12/19 02:05:32;;;;;;;0.60;0.60;;;;;;;2.00;81.16;97951.09;29395;227;63025;-53
2023/12/19 02:06:06;;;;;;;0.60;0.60;;;;;;;1.99;81.16;97946.78;29395;303;63004;-66
2023/12/19 02:06:38;;;;;;;0.60;0.60;;;;;;;2.00;81.02;97952.94;29395;241;63008;-64
2023/12/19 02:07:09;;;;;;;0.60;0.60;;;;;;;2.03;80.86;97941.00;29395;223;63001;-54
2023/12/19 02:07:42;;;;;;;0.70;0.70;;;;;;;2.04;80.31;97942.63;29395;197;63016;-53
2023/12/19 02:08:14;;;;;;;0.60;0.60;;;;;;;2.07;79.65;97942.22;29395;205;63005;-53
2023/12/19 02:08:46;;;;;;;0.60;0.60;;;;;;;2.08;79.13;97939.28;29395;210;63009;-54
2023/12/19 02:09:17;;;;;;;0.60;0.60;;;;;;;2.13;78.11;97933.31;29395;226;63005;-54
2023/12/19 02:09:48;;;;;;;0.60;0.60;;;;;;;2.17;77.84;97932.66;29394;203;64013;-56
2023/12/19 02:10:20;;;;;;;0.60;0.60;;;;;;;2.21;77.38;97939.25;29395;229;63005;-54
2023/12/19 02:10:51;;;;;;;0.60;0.60;;;;;;;2.25;77.01;97936.97;29395;366;63009;-67
2023/12/19 02:11:22;;;;;;;0.60;0.60;;;;;;;2.29;77.21;97940.84;29395;218;63009;-54
2023/12/19 02:11:54;;;;;;;0.60;0.60;;;;;;;2.34;76.66;97938.38;29395;211;63009;-66
2023/12/19 02:12:27;;;;;;;0.60;0.60;;;;;;;2.38;75.73;97939.56;29395;298;63008;-66
2023/12/19 02:13:01;;;;;;;0.60;0.60;;;;;;;2.44;75.50;97941.38;29395;363;63009;-53
2023/12/19 02:13:33;;;;;;;1.02;1.02;;;;;;;2.49;75.39;97951.44;29395;214;63004;-67
2023/12/19 02:14:04;;;;;;;0.70;0.70;;;;;;;2.51;75.24;97947.50;29395;202;63010;-67
2023/12/19 02:14:35;;;;;;;0.60;0.60;;;;;;;2.54;75.32;97949.75;29395;237;63004;-68
2023/12/19 02:15:08;;;;;;;0.60;0.60;;;;;;;2.57;75.53;97953.88;29394;249;64014;-66
2023/12/19 02:15:43;;;;;;;0.70;0.70;;;;;;;2.58;75.67;97950.97;29395;197;63005;-66
2023/12/19 02:16:14;;;;;;;0.60;0.60;;;;;;;2.60;75.94;97948.09;29395;263;63015;-68
2023/12/19 02:16:45;;;;;;;0.62;0.62;;;;;;;2.61;75.89;97950.56;29395;202;63005;-54
2023/12/19 02:17:17;;;;;;;0.70;0.70;;;;;;;2.59;76.38;97949.94;29395;245;63009;-54
2023/12/19 02:17:48;;;;;;;0.60;0.60;;;;;;;2.55;76.55;97946.03;29395;271;63005;-54
2023/12/19 02:18:20;;;;;;;0.52;0.52;;;;;;;2.49;77.23;97948.75;29395;211;63009;-54
2023/12/19 02:19:02;;;;;;;0.60;0.60;;;;;;;2.42;79.16;97956.03;29395;218;63004;-67
2023/12/19 02:19:42;;;;;;;0.60;0.60;;;;;;;2.29;79.36;97957.75;29395;215;63009;-68
2023/12/19 02:20:14;;;;;;;0.60;0.60;;;;;;;2.18;80.37;97961.09;29416;196;64009;-67
2023/12/19 02:20:46;;;;;;;0.60;0.60;;;;;;;2.10;80.32;97966.69;29395;202;63009;-67
2023/12/19 02:21:18;;;;;;;0.60;0.60;;;;;;;2.06;80.79;97967.34;29395;202;63004;-69
2023/12/19 02:21:49;;;;;;;0.60;0.60;;;;;;;2.03;81.30;97979.28;29395;206;63008;-54
2023/12/19 02:22:21;;;;;;;0.60;0.60;;;;;;;2.00;81.33;97977.84;29395;304;63005;-69
2023/12/19 02:22:53;;;;;;;0.60;0.60;;;;;;;1.97;81.32;97982.81;29395;306;63009;-54
2023/12/19 02:23:28;;;;;;;0.62;0.62;;;;;;;1.92;81.73;97983.44;29395;224;63005;-54
2023/12/19 02:24:00;;;;;;;0.70;0.70;;;;;;;1.85;82.01;97974.59;29394;222;64009;-67
2023/12/19 02:24:31;;;;;;;0.70;0.70;;;;;;;1.79;82.38;97983.47;29395;243;63005;-68
2023/12/19 02:25:03;;;;;;;0.60;0.60;;;;;;;1.72;82.99;97974.66;29395;262;63009;-54
2023/12/19 02:25:34;;;;;;;0.60;0.60;;;;;;;1.68;83.29;97984.13;29394;191;64009;-67
2023/12/19 02:26:06;;;;;;;0.60;0.60;;;;;;;1.65;84.05;97976.53;29395;246;63009;-54
2023/12/19 02:26:38;;;;;;;0.60;0.60;;;;;;;1.62;85.00;97982.28;29395;288;63004;-69
2023/12/19 02:27:11;;;;;;;0.60;0.60;;;;;;;1.58;84.72;97968.50;29395;228;63009;-68
2023/12/19 02:27:42;;;;;;;0.70;0.70;;;;;;;1.56;84.40;97975.09;29395;268;63004;-54
2023/12/19 02:28:13;;;;;;;0.60;0.60;;;;;;;1.54;84.69;97969.12;29395;216;63009;-54
2023/12/19 02:28:45;;;;;;;0.70;0.70;;;;;;;1.51;84.46;97970.38;29395;234;63004;-68
2023/12/19 02:29:16;;;;;;;0.85;0.85;;;;;;;1.48;84.68;97964.63;29395;196;63008;-54
2023/12/19 02:29:47;;;;;;;0.60;0.60;;;;;;;1.42;83.92;97965.44;29395;234;63005;-68
2023/12/19 02:30:19;;;;;;;0.60;0.60;;;;;;;1.37;84.31;97965.28;29395;307;63009;-67
2023/12/19 02:30:50;;;;;;;0.60;0.60;;;;;;;1.33;84.75;97968.38;29394;208;64009;-54
2023/12/19 02:31:21;;;;;;;0.60;0.60;;;;;;;1.30;85.06;97966.09;29395;286;63009;-53
2023/12/19 02:31:56;;;;;;;0.60;0.60;;;;;;;1.24;85.15;97966.94;29395;208;63005;-69
2023/12/19 02:32:35;;;;;;;0.70;0.70;;;;;;;1.20;85.47;97968.38;29395;208;63009;-68
2023/12/19 02:33:09;;;;;;;0.60;0.60;;;;;;;1.17;85.39;97958.09;29395;228;63004;-68
2023/12/19 02:33:41;;;;;;;0.70;0.70;;;;;;;1.19;86.05;97960.56;29395;219;63009;-66
2023/12/19 02:34:12;;;;;;;8.30;7.72;;;;;;;1.18;85.90;97950.87;29395;230;63004;-54